createdAt,value
2024-03-22T00:00:32.404Z,1172.00
2024-03-22T00:01:32.393Z,1167.00
2024-03-22T00:02:32.419Z,1164.00
2024-03-22T00:03:32.390Z,1156.00
2024-03-22T00:04:32.401Z,1170.00
2024-03-22T00:05:32.393Z,1174.00
2024-03-22T00:06:32.412Z,1178.00
2024-03-22T00:07:32.431Z,1175.00
2024-03-22T00:08:32.410Z,1155.00
2024-03-22T00:09:32.410Z,1145.00
2024-03-22T00:10:32.419Z,1157.00
2024-03-22T00:11:32.440Z,1153.00
2024-03-22T00:12:32.413Z,1145.00
2024-03-22T00:13:32.407Z,1152.00
2024-03-22T00:14:34.495Z,1145.00
2024-03-22T00:15:32.408Z,1142.00
2024-03-22T00:16:32.428Z,1120.00
2024-03-22T00:17:32.465Z,1129.00
2024-03-22T00:18:32.459Z,1111.00
2024-03-22T00:19:32.414Z,1121.00
2024-03-22T00:20:35.071Z,1120.00
2024-03-22T00:21:32.440Z,1116.00
2024-03-22T00:22:32.431Z,1121.00
2024-03-22T00:23:32.444Z,1099.00
2024-03-22T00:24:32.434Z,1090.00
2024-03-22T00:25:32.448Z,1091.00
2024-03-22T00:26:32.452Z,1102.00
2024-03-22T00:27:32.444Z,1113.00
2024-03-22T00:28:32.440Z,1115.00
2024-03-22T00:29:32.439Z,1130.00
2024-03-22T00:30:32.442Z,1134.00
2024-03-22T00:31:32.468Z,1122.00
2024-03-22T00:32:32.524Z,1131.00
2024-03-22T00:33:32.450Z,1143.00
2024-03-22T00:34:32.456Z,1138.00
2024-03-22T00:35:32.449Z,1145.00
2024-03-22T00:36:32.460Z,1144.00
2024-03-22T00:37:32.455Z,1148.00
2024-03-22T00:38:32.502Z,1151.00
2024-03-22T00:39:32.474Z,1150.00
2024-03-22T00:40:32.477Z,1149.00
2024-03-22T00:41:32.478Z,1158.00
2024-03-22T00:42:32.485Z,1151.00
2024-03-22T00:43:32.470Z,1152.00
2024-03-22T00:44:32.514Z,1146.00
2024-03-22T00:45:32.498Z,1141.00
2024-03-22T00:46:32.485Z,1136.00
2024-03-22T00:47:32.479Z,1124.00
2024-03-22T00:48:32.477Z,1113.00
2024-03-22T00:49:32.469Z,1110.00
2024-03-22T00:50:32.496Z,1103.00
2024-03-22T00:51:32.479Z,1087.00
2024-03-22T00:52:32.492Z,1092.00
2024-03-22T00:53:32.509Z,1099.00
2024-03-22T00:54:32.509Z,1096.00
2024-03-22T00:55:32.494Z,1094.00
2024-03-22T00:56:32.532Z,1074.00
2024-03-22T00:57:32.492Z,1058.00
2024-03-22T00:58:32.500Z,1057.00
2024-03-22T00:59:32.512Z,1032.00
2024-03-22T01:00:32.500Z,1042.00
2024-03-22T01:01:32.524Z,1019.00
2024-03-22T01:02:32.514Z,1007.00
2024-03-22T01:03:32.502Z,1009.00
2024-03-22T01:04:32.524Z,995.00
2024-03-22T01:05:32.541Z,1008.00
2024-03-22T01:06:32.526Z,1006.00
2024-03-22T01:07:32.518Z,990.00
2024-03-22T01:08:32.515Z,994.00
2024-03-22T01:09:32.514Z,994.00
2024-03-22T01:10:32.522Z,984.00
2024-03-22T01:11:32.571Z,997.00
2024-03-22T01:12:32.533Z,999.00
2024-03-22T01:13:32.532Z,1013.00
2024-03-22T01:14:32.542Z,1038.00
2024-03-22T01:15:32.520Z,1038.00
2024-03-22T01:16:32.533Z,1039.00
2024-03-22T01:17:32.536Z,1048.00
2024-03-22T01:18:32.529Z,1039.00
2024-03-22T01:19:32.524Z,1033.00
2024-03-22T01:20:32.523Z,1053.00
2024-03-22T01:21:32.527Z,1038.00
2024-03-22T01:22:32.531Z,1049.00
2024-03-22T01:23:32.522Z,1030.00
2024-03-22T01:24:32.545Z,1030.00
2024-03-22T01:25:32.563Z,1009.00
2024-03-22T01:26:32.563Z,1003.00
2024-03-22T01:27:32.526Z,1011.00
2024-03-22T01:28:32.530Z,1008.00
2024-03-22T01:29:32.554Z,1001.00
2024-03-22T01:30:32.544Z,1006.00
2024-03-22T01:31:32.547Z,1003.00
2024-03-22T01:32:32.588Z,1010.00
2024-03-22T01:33:32.536Z,1010.00
2024-03-22T01:34:32.548Z,1008.00
2024-03-22T01:35:32.550Z,1020.00
2024-03-22T01:36:32.553Z,1021.00
2024-03-22T01:37:32.543Z,1003.00
2024-03-22T01:38:32.564Z,1016.00
2024-03-22T01:39:32.571Z,1007.00
2024-03-22T01:40:32.557Z,1021.00
2024-03-22T01:41:32.628Z,1019.00
2024-03-22T01:42:32.570Z,1034.00
2024-03-22T01:43:32.548Z,1021.00
2024-03-22T01:44:32.602Z,1050.00
2024-03-22T01:45:32.575Z,1050.00
2024-03-22T01:46:32.591Z,1056.00
2024-03-22T01:47:32.561Z,1071.00
2024-03-22T01:48:32.590Z,1076.00
2024-03-22T01:49:32.569Z,1090.00
2024-03-22T01:50:32.572Z,1106.00
2024-03-22T01:51:32.584Z,1115.00
2024-03-22T01:52:32.584Z,1133.00
2024-03-22T01:53:32.573Z,1130.00
2024-03-22T01:54:32.584Z,1144.00
2024-03-22T01:55:32.578Z,1153.00
2024-03-22T01:56:32.579Z,1171.00
2024-03-22T01:57:32.590Z,1177.00
2024-03-22T01:58:32.601Z,1190.00
2024-03-22T01:59:32.595Z,1204.00
2024-03-22T02:00:32.624Z,1206.00
2024-03-22T02:01:32.615Z,1216.00
2024-03-22T02:02:32.591Z,1219.00
2024-03-22T02:03:32.613Z,1228.00
2024-03-22T02:04:32.642Z,1220.00
2024-03-22T02:05:32.613Z,1229.00
2024-03-22T02:06:32.634Z,1230.00
2024-03-22T02:07:32.630Z,1232.00
2024-03-22T02:08:32.608Z,1236.00
2024-03-22T02:09:32.635Z,1233.00
2024-03-22T02:10:32.622Z,1230.00
2024-03-22T02:11:32.629Z,1231.00
2024-03-22T02:12:32.632Z,1232.00
2024-03-22T02:13:32.622Z,1231.00
2024-03-22T02:14:32.656Z,1231.00
2024-03-22T02:15:32.642Z,1235.00
2024-03-22T02:16:32.649Z,1236.00
2024-03-22T02:17:32.675Z,1233.00
2024-03-22T02:18:32.649Z,1230.00
2024-03-22T02:19:32.629Z,1234.00
2024-03-22T02:20:32.660Z,1235.00
2024-03-22T02:21:32.653Z,1241.00
2024-03-22T02:22:32.644Z,1242.00
2024-03-22T02:23:32.664Z,1248.00
2024-03-22T02:24:32.640Z,1242.00
2024-03-22T02:25:32.656Z,1248.00
2024-03-22T02:26:32.642Z,1255.00
2024-03-22T02:27:32.694Z,1243.00
2024-03-22T02:28:32.671Z,1244.00
2024-03-22T02:29:32.722Z,1254.00
2024-03-22T02:30:32.657Z,1251.00
2024-03-22T02:31:32.656Z,1249.00
2024-03-22T02:32:32.678Z,1249.00
2024-03-22T02:33:32.691Z,1258.00
2024-03-22T02:34:35.833Z,1239.00
2024-03-22T02:35:32.674Z,1235.00
2024-03-22T02:36:32.662Z,1231.00
2024-03-22T02:37:32.775Z,1251.00
2024-03-22T02:38:32.650Z,1250.00
2024-03-22T02:39:32.649Z,1236.00
2024-03-22T02:40:32.667Z,1252.00
2024-03-22T02:41:32.658Z,1247.00
2024-03-22T02:42:32.667Z,1255.00
2024-03-22T02:43:32.701Z,1250.00
2024-03-22T02:44:32.650Z,1248.00
2024-03-22T02:45:32.667Z,1248.00
2024-03-22T02:46:32.683Z,1250.00
2024-03-22T02:47:32.677Z,1255.00
2024-03-22T02:48:32.671Z,1262.00
2024-03-22T02:49:32.676Z,1277.00
2024-03-22T02:50:32.676Z,1285.00
2024-03-22T02:51:32.688Z,1283.00
2024-03-22T02:52:32.692Z,1278.00
2024-03-22T02:53:32.686Z,1277.00
2024-03-22T02:54:32.676Z,1272.00
2024-03-22T02:55:32.687Z,1281.00
2024-03-22T02:56:32.695Z,1279.00
2024-03-22T02:57:32.686Z,1286.00
2024-03-22T02:58:32.710Z,1286.00
2024-03-22T02:59:32.694Z,1286.00
2024-03-22T03:00:32.689Z,1288.00
2024-03-22T03:01:32.726Z,1297.00
2024-03-22T03:02:32.683Z,1306.00
2024-03-22T03:03:32.698Z,1302.00
2024-03-22T03:04:32.699Z,1304.00
2024-03-22T03:05:32.707Z,1304.00
2024-03-22T03:06:32.700Z,1309.00
2024-03-22T03:07:32.703Z,1308.00
2024-03-22T03:08:32.737Z,1310.00
2024-03-22T03:09:32.716Z,1310.00
2024-03-22T03:10:32.709Z,1317.00
2024-03-22T03:11:32.730Z,1332.00
2024-03-22T03:12:32.706Z,1339.00
2024-03-22T03:13:32.724Z,1350.00
2024-03-22T03:14:32.716Z,1344.00
2024-03-22T03:15:32.713Z,1371.00
2024-03-22T03:16:32.722Z,1367.00
2024-03-22T03:17:32.716Z,1388.00
2024-03-22T03:18:32.731Z,1395.00
2024-03-22T03:19:32.722Z,1398.00
2024-03-22T03:20:32.718Z,1396.00
2024-03-22T03:21:32.732Z,1378.00
2024-03-22T03:22:32.713Z,1400.00
2024-03-22T03:23:32.722Z,1381.00
2024-03-22T03:24:32.731Z,1366.00
2024-03-22T03:25:32.726Z,1366.00
2024-03-22T03:26:32.753Z,1353.00
2024-03-22T03:27:32.797Z,1352.00
2024-03-22T03:28:32.821Z,1356.00
2024-03-22T03:29:32.871Z,1358.00
2024-03-22T03:30:32.903Z,1354.00
2024-03-22T03:31:32.943Z,1360.00
2024-03-22T03:32:32.980Z,1351.00
2024-03-22T03:33:33.028Z,1339.00
2024-03-22T03:34:33.074Z,1332.00
2024-03-22T03:35:33.117Z,1312.00
2024-03-22T03:36:33.160Z,1305.00
2024-03-22T03:37:33.202Z,1291.00
2024-03-22T03:38:33.268Z,1289.00
2024-03-22T03:39:33.320Z,1284.00
2024-03-22T03:40:33.377Z,1273.00
2024-03-22T03:41:33.425Z,1282.00
2024-03-22T03:42:33.471Z,1284.00
2024-03-22T03:43:33.532Z,1279.00
2024-03-22T03:44:33.583Z,1276.00
2024-03-22T03:45:33.650Z,1287.00
2024-03-22T03:46:33.741Z,1287.00
2024-03-22T03:47:33.791Z,1289.00
2024-03-22T03:48:33.838Z,1301.00
2024-03-22T03:49:33.922Z,1299.00
2024-03-22T03:50:33.992Z,1321.00
2024-03-22T03:51:34.085Z,1319.00
2024-03-22T03:52:34.145Z,1332.00
2024-03-22T03:53:34.213Z,1361.00
2024-03-22T03:54:34.293Z,1366.00
2024-03-22T03:55:34.355Z,1365.00
2024-03-22T03:56:34.416Z,1377.00
2024-03-22T03:57:34.478Z,1388.00
2024-03-22T03:58:34.554Z,1405.00
2024-03-22T03:59:34.627Z,1393.00
2024-03-22T04:00:34.702Z,1413.00
2024-03-22T04:01:34.767Z,1410.00
2024-03-22T04:02:34.816Z,1418.00
2024-03-22T04:03:34.842Z,1420.00
2024-03-22T04:04:34.878Z,1415.00
2024-03-22T04:05:34.946Z,1419.00
2024-03-22T04:06:35.002Z,1419.00
2024-03-22T04:07:35.063Z,1437.00
2024-03-22T04:08:35.102Z,1446.00
2024-03-22T04:09:35.195Z,1455.00
2024-03-22T04:10:35.219Z,1474.00
2024-03-22T04:11:35.273Z,1488.00
2024-03-22T04:12:35.308Z,1501.00
2024-03-22T04:13:35.352Z,1524.00
2024-03-22T04:14:35.399Z,1540.00
2024-03-22T04:15:35.430Z,1557.00
2024-03-22T04:16:35.474Z,1572.00
2024-03-22T04:17:35.512Z,1587.00
2024-03-22T04:18:35.539Z,1594.00
2024-03-22T04:19:35.536Z,1616.00
2024-03-22T04:20:35.544Z,1623.00
2024-03-22T04:21:35.561Z,1643.00
2024-03-22T04:22:35.557Z,1657.00
2024-03-22T04:23:35.558Z,1683.00
2024-03-22T04:24:35.587Z,1690.00
2024-03-22T04:25:35.574Z,1713.00
2024-03-22T04:26:35.586Z,1734.00
2024-03-22T04:27:35.605Z,1755.00
2024-03-22T04:28:35.638Z,1769.00
2024-03-22T04:29:35.642Z,1783.00
2024-03-22T04:30:35.684Z,1789.00
2024-03-22T04:31:35.715Z,1801.00
2024-03-22T04:32:35.737Z,1815.00
2024-03-22T04:33:35.805Z,1837.00
2024-03-22T04:34:35.851Z,1832.00
2024-03-22T04:35:35.897Z,1831.00
2024-03-22T04:36:35.955Z,1828.00
2024-03-22T04:37:35.990Z,1834.00
2024-03-22T04:38:36.053Z,1838.00
2024-03-22T04:39:43.331Z,600.00
2024-03-22T04:40:43.330Z,600.00
2024-03-22T04:41:43.341Z,600.00
2024-03-22T04:42:43.341Z,600.00
2024-03-22T04:43:43.338Z,600.00
2024-03-22T04:44:43.350Z,602.00
2024-03-22T04:45:43.354Z,605.00
2024-03-22T04:46:43.503Z,605.00
2024-03-22T04:47:43.375Z,606.00
2024-03-22T04:48:43.378Z,607.00
2024-03-22T04:49:43.333Z,608.00
2024-03-22T04:50:43.370Z,611.00
2024-03-22T04:51:43.348Z,618.00
2024-03-22T04:52:43.338Z,619.00
2024-03-22T04:53:45.989Z,622.00
2024-03-22T04:54:43.368Z,627.00
2024-03-22T04:55:43.364Z,626.00
2024-03-22T04:56:43.409Z,630.00
2024-03-22T04:57:43.355Z,635.00
2024-03-22T04:58:43.346Z,650.00
2024-03-22T04:59:43.361Z,652.00
2024-03-22T05:00:43.354Z,661.00
2024-03-22T05:01:43.355Z,670.00
2024-03-22T05:02:43.372Z,675.00
2024-03-22T05:03:43.348Z,682.00
2024-03-22T05:04:43.359Z,701.00
2024-03-22T05:05:43.376Z,704.00
2024-03-22T05:06:43.361Z,717.00
2024-03-22T05:07:43.354Z,729.00
2024-03-22T05:08:43.371Z,741.00
2024-03-22T05:09:43.353Z,761.00
2024-03-22T05:10:43.376Z,770.00
2024-03-22T05:11:43.391Z,783.00
2024-03-22T05:12:43.361Z,803.00
2024-03-22T05:13:43.379Z,805.00
2024-03-22T05:14:43.383Z,822.00
2024-03-22T05:15:43.369Z,827.00
2024-03-22T05:16:43.368Z,835.00
2024-03-22T05:17:43.429Z,851.00
2024-03-22T05:18:43.377Z,847.00
2024-03-22T05:19:43.377Z,847.00
2024-03-22T05:20:43.379Z,865.00
2024-03-22T05:21:43.382Z,879.00
2024-03-22T05:22:43.369Z,878.00
2024-03-22T05:23:43.436Z,904.00
2024-03-22T05:24:43.364Z,913.00
2024-03-22T05:25:43.369Z,931.00
2024-03-22T05:26:43.376Z,940.00
2024-03-22T05:27:43.377Z,973.00
2024-03-22T05:28:43.381Z,980.00
2024-03-22T05:29:43.381Z,981.00
2024-03-22T05:30:43.372Z,982.00
2024-03-22T05:31:43.382Z,993.00
2024-03-22T05:32:43.399Z,996.00
2024-03-22T05:33:43.403Z,1036.00
2024-03-22T05:34:43.382Z,1062.00
2024-03-22T05:35:43.384Z,1056.00
2024-03-22T05:36:43.394Z,1080.00
2024-03-22T05:37:43.397Z,1091.00
2024-03-22T05:38:43.390Z,1102.00
2024-03-22T05:39:43.398Z,1120.00
2024-03-22T05:40:43.414Z,1121.00
2024-03-22T05:41:43.423Z,1129.00
2024-03-22T05:42:43.413Z,1149.00
2024-03-22T05:43:43.420Z,1186.00
2024-03-22T05:44:43.438Z,1244.00
2024-03-22T05:45:43.412Z,1278.00
2024-03-22T05:46:43.425Z,1287.00
2024-03-22T05:47:43.436Z,1303.00
2024-03-22T05:48:43.432Z,1318.00
2024-03-22T05:49:43.430Z,1337.00
2024-03-22T05:50:43.440Z,1358.00
2024-03-22T05:51:43.477Z,1370.00
2024-03-22T05:52:43.531Z,1382.00
2024-03-22T05:53:43.619Z,1388.00
2024-03-22T05:54:43.640Z,1419.00
2024-03-22T05:55:43.704Z,1432.00
2024-03-22T05:56:43.797Z,1449.00
2024-03-22T05:57:43.828Z,1461.00
2024-03-22T05:58:43.880Z,1482.00
2024-03-22T05:59:43.959Z,1504.00
2024-03-22T06:00:44.044Z,1520.00
2024-03-22T06:01:44.468Z,1542.00
2024-03-22T06:02:44.122Z,1577.00
2024-03-22T06:03:44.243Z,1583.00
2024-03-22T06:04:46.782Z,1621.00
2024-03-22T06:05:44.204Z,1622.00
2024-03-22T06:06:44.198Z,1631.00
2024-03-22T06:07:44.211Z,1659.00
2024-03-22T06:08:44.238Z,1712.00
2024-03-22T06:09:44.266Z,1794.00
2024-03-22T06:10:44.208Z,1824.00
2024-03-22T06:11:44.202Z,1857.00
2024-03-22T06:12:44.205Z,1870.00
2024-03-22T06:13:44.223Z,1882.00
2024-03-22T06:14:44.224Z,1891.00
2024-03-22T06:15:44.211Z,1892.00
2024-03-22T06:16:44.210Z,1893.00
2024-03-22T06:17:44.274Z,1895.00
2024-03-22T06:18:44.244Z,1897.00
2024-03-22T06:19:44.235Z,1903.00
2024-03-22T06:20:44.219Z,1921.00
2024-03-22T06:21:44.231Z,1917.00
2024-03-22T06:22:44.219Z,1920.00
2024-03-22T06:23:44.225Z,1930.00
2024-03-22T06:24:44.227Z,1934.00
2024-03-22T06:25:44.224Z,1946.00
2024-03-22T06:26:46.058Z,1946.00
2024-03-22T06:27:45.746Z,1950.00
2024-03-22T06:28:44.297Z,1956.00
2024-03-22T06:29:44.384Z,1953.00
2024-03-22T06:30:44.404Z,1965.00
2024-03-22T06:31:44.518Z,1974.00
2024-03-22T06:32:44.534Z,1978.00
2024-03-22T06:33:44.574Z,1980.00
2024-03-22T06:34:44.651Z,1997.00
2024-03-22T06:35:44.709Z,1996.00
2024-03-22T06:36:44.794Z,1995.00
2024-03-22T06:37:44.983Z,2004.00
2024-03-22T06:38:44.888Z,2014.00
2024-03-22T06:39:45.476Z,2023.00
2024-03-22T06:40:45.164Z,2024.00
2024-03-22T06:41:50.637Z,2026.00
2024-03-22T06:42:45.133Z,2024.00
2024-03-22T06:43:45.040Z,2029.00
2024-03-22T06:44:45.345Z,2045.00
2024-03-22T06:45:45.044Z,2059.00
2024-03-22T06:46:45.060Z,2101.00
2024-03-22T06:47:45.284Z,2105.00
2024-03-22T06:48:46.125Z,2097.00
2024-03-22T06:49:45.057Z,2095.00
2024-03-22T06:50:45.155Z,2104.00
2024-03-22T06:51:45.895Z,2121.00
2024-03-22T06:52:45.280Z,2122.00
2024-03-22T06:53:45.327Z,2122.00
2024-03-22T06:54:45.343Z,2126.00
2024-03-22T06:55:45.613Z,2139.00
2024-03-22T06:56:45.403Z,2154.00
2024-03-22T06:57:46.075Z,2150.00
2024-03-22T06:58:45.481Z,2141.00
2024-03-22T06:59:45.543Z,2145.00
2024-03-22T07:00:45.532Z,2142.00
2024-03-22T07:01:45.598Z,2151.00
2024-03-22T07:02:45.609Z,2129.00
2024-03-22T07:03:45.632Z,2127.00
2024-03-22T07:04:45.671Z,2118.00
2024-03-22T07:05:45.685Z,2117.00
2024-03-22T07:06:47.576Z,2120.00
2024-03-22T07:07:46.682Z,2119.00
2024-03-22T07:08:45.701Z,2121.00
2024-03-22T07:09:45.677Z,2116.00
2024-03-22T07:10:45.782Z,2108.00
2024-03-22T07:11:45.714Z,2089.00
2024-03-22T07:12:45.709Z,2087.00
2024-03-22T07:13:46.702Z,2072.00
2024-03-22T07:14:45.692Z,2069.00
2024-03-22T07:15:45.948Z,2066.00
2024-03-22T07:16:45.744Z,2072.00
2024-03-22T07:17:45.790Z,2058.00
2024-03-22T07:18:45.775Z,2064.00
2024-03-22T07:19:45.769Z,2055.00
2024-03-22T07:20:45.819Z,2035.00
2024-03-22T07:21:45.799Z,2042.00
2024-03-22T07:22:45.842Z,2042.00
2024-03-22T07:23:57.683Z,2042.00
2024-03-22T07:24:45.857Z,2043.00
2024-03-22T07:25:45.889Z,2046.00
2024-03-22T07:26:45.883Z,2045.00
2024-03-22T07:27:45.839Z,2045.00
2024-03-22T07:28:45.831Z,2048.00
2024-03-22T07:29:45.885Z,2059.00
2024-03-22T07:30:45.876Z,2112.00
2024-03-22T07:31:46.598Z,2257.00
2024-03-22T07:32:45.897Z,2317.00
2024-03-22T07:33:45.919Z,2351.00
2024-03-22T07:34:45.856Z,2351.00
2024-03-22T07:35:45.868Z,2351.00
2024-03-22T07:36:45.916Z,2336.00
2024-03-22T07:37:45.875Z,2317.00
2024-03-22T07:38:45.868Z,2295.00
2024-03-22T07:39:45.920Z,2294.00
2024-03-22T07:40:46.538Z,2269.00
2024-03-22T07:41:46.055Z,2270.00
2024-03-22T07:42:46.062Z,2259.00
2024-03-22T07:43:46.124Z,2246.00
2024-03-22T07:44:46.190Z,2242.00
2024-03-22T07:45:46.265Z,2228.00
2024-03-22T07:46:46.338Z,2228.00
2024-03-22T07:47:46.629Z,2222.00
2024-03-22T07:48:46.477Z,2205.00
2024-03-22T07:49:46.546Z,2166.00
2024-03-22T07:50:46.825Z,2130.00
2024-03-22T07:51:46.747Z,2098.00
2024-03-22T07:52:46.754Z,2065.00
2024-03-22T07:53:46.965Z,2038.00
2024-03-22T07:54:47.189Z,2002.00
2024-03-22T07:55:46.967Z,1978.00
2024-03-22T07:56:47.000Z,1957.00
2024-03-22T07:57:47.105Z,1910.00
2024-03-22T07:58:46.967Z,1875.00
2024-03-22T07:59:46.972Z,1848.00
2024-03-22T08:00:46.961Z,1818.00
2024-03-22T08:01:47.065Z,1798.00
2024-03-22T08:02:46.981Z,1763.00
2024-03-22T08:03:47.002Z,1747.00
2024-03-22T08:04:47.032Z,1714.00
2024-03-22T08:05:47.041Z,1723.00
2024-03-22T08:06:47.029Z,1728.00
2024-03-22T08:07:47.027Z,1746.00
2024-03-22T08:08:47.077Z,1779.00
2024-03-22T08:09:47.238Z,1876.00
2024-03-22T08:10:47.156Z,1994.00
2024-03-22T08:11:47.046Z,1989.00
2024-03-22T08:12:46.984Z,1966.00
2024-03-22T08:13:47.014Z,1924.00
2024-03-22T08:14:47.045Z,1883.00
2024-03-22T08:15:47.020Z,1859.00
2024-03-22T08:16:47.016Z,1817.00
2024-03-22T08:17:47.052Z,1779.00
2024-03-22T08:18:47.116Z,1757.00
2024-03-22T08:19:47.114Z,1736.00
2024-03-22T08:20:47.167Z,1714.00
2024-03-22T08:21:47.561Z,1714.00
2024-03-22T08:22:47.199Z,1714.00
2024-03-22T08:23:47.168Z,1716.00
2024-03-22T08:24:47.797Z,1714.00
2024-03-22T08:25:47.164Z,1714.00
2024-03-22T08:26:47.222Z,1723.00
2024-03-22T08:27:59.782Z,1725.00
2024-03-22T08:28:49.165Z,1710.00
2024-03-22T08:29:48.811Z,1681.00
2024-03-22T08:30:48.320Z,1680.00
2024-03-22T08:31:47.172Z,1667.00
2024-03-22T08:32:47.122Z,1682.00
2024-03-22T08:33:47.089Z,1683.00
2024-03-22T08:34:47.121Z,1662.00
2024-03-22T08:35:47.191Z,1625.00
2024-03-22T08:36:47.134Z,1606.00
2024-03-22T08:37:47.099Z,1555.00
2024-03-22T08:38:47.198Z,1480.00
2024-03-22T08:39:47.452Z,1423.00
2024-03-22T08:40:47.198Z,1389.00
2024-03-22T08:41:47.243Z,1351.00
2024-03-22T08:42:47.181Z,1302.00
2024-03-22T08:43:47.108Z,1286.00
2024-03-22T08:44:47.165Z,1257.00
2024-03-22T08:45:47.098Z,1243.00
2024-03-22T08:46:47.112Z,1219.00
2024-03-22T08:47:47.243Z,1191.00
2024-03-22T08:48:47.107Z,1164.00
2024-03-22T08:49:47.181Z,1147.00
2024-03-22T08:50:47.187Z,1122.00
2024-03-22T08:51:47.704Z,1017.00
2024-03-22T08:52:47.139Z,1015.00
2024-03-22T08:53:47.330Z,1021.00
2024-03-22T08:54:47.142Z,1023.00
2024-03-22T08:55:47.126Z,1018.00
2024-03-22T08:56:47.153Z,1003.00
2024-03-22T08:57:53.998Z,993.00
2024-03-22T08:58:48.156Z,994.00
2024-03-22T08:59:47.148Z,985.00
2024-03-22T09:00:47.151Z,962.00
2024-03-22T09:01:47.147Z,952.00
2024-03-22T09:02:47.187Z,934.00
2024-03-22T09:03:47.185Z,906.00
2024-03-22T09:04:47.156Z,880.00
2024-03-22T09:05:56.517Z,865.00
2024-03-22T09:06:48.170Z,843.00
2024-03-22T09:07:48.557Z,819.00
2024-03-22T09:08:47.193Z,802.00
2024-03-22T09:09:47.170Z,771.00
2024-03-22T09:10:47.287Z,751.00
2024-03-22T09:11:47.186Z,709.00
2024-03-22T09:12:47.208Z,686.00
2024-03-22T09:13:47.226Z,658.00
2024-03-22T09:14:47.360Z,639.00
2024-03-22T09:15:47.307Z,622.00
2024-03-22T09:16:47.343Z,614.00
2024-03-22T09:17:47.433Z,600.00
2024-03-22T09:18:47.423Z,600.00
2024-03-22T09:19:47.442Z,600.00
2024-03-22T09:20:47.507Z,600.00
2024-03-22T09:21:47.487Z,600.00
2024-03-22T09:22:47.549Z,598.00
2024-03-22T09:23:47.497Z,577.00
2024-03-22T09:24:47.526Z,550.00
2024-03-22T09:25:48.820Z,526.00
2024-03-22T09:26:47.547Z,503.00
2024-03-22T09:27:47.585Z,490.00
2024-03-22T09:28:47.684Z,446.00
2024-03-22T09:29:47.743Z,403.00
2024-03-22T09:30:56.554Z,400.00
2024-03-22T09:31:48.676Z,400.00
2024-03-22T09:32:47.658Z,400.00
2024-03-22T09:33:48.584Z,400.00
2024-03-22T09:34:47.617Z,400.00
2024-03-22T09:35:48.203Z,400.00
2024-03-22T09:36:47.656Z,400.00
2024-03-22T09:37:47.615Z,400.00
2024-03-22T09:38:47.595Z,400.00
2024-03-22T09:39:47.653Z,400.00
2024-03-22T09:40:47.624Z,400.00
2024-03-22T09:41:50.460Z,400.00
2024-03-22T09:42:47.667Z,400.00
2024-03-22T09:43:47.650Z,400.00
2024-03-22T09:44:47.648Z,400.00
2024-03-22T09:45:47.627Z,400.00
2024-03-22T09:46:47.700Z,400.00
2024-03-22T09:47:47.643Z,400.00
2024-03-22T09:48:48.567Z,400.00
2024-03-22T09:49:47.639Z,400.00
2024-03-22T09:50:47.651Z,400.00
2024-03-22T09:51:47.630Z,400.00
2024-03-22T09:52:47.701Z,400.00
2024-03-22T09:53:48.659Z,400.00
2024-03-22T09:54:47.844Z,400.00
2024-03-22T09:55:48.011Z,400.00
2024-03-22T09:56:47.946Z,400.00
2024-03-22T09:57:48.088Z,400.00
2024-03-22T09:58:48.134Z,400.00
2024-03-22T09:59:48.119Z,400.00
2024-03-22T10:00:48.110Z,400.00
2024-03-22T10:01:48.234Z,400.00
2024-03-22T10:02:48.202Z,400.00
2024-03-22T10:03:48.359Z,403.00
2024-03-22T10:04:48.235Z,417.00
2024-03-22T10:05:48.223Z,400.00
2024-03-22T10:06:48.297Z,400.00
2024-03-22T10:07:48.255Z,400.00
2024-03-22T10:08:48.239Z,400.00
2024-03-22T10:09:48.254Z,400.00
2024-03-22T10:10:48.373Z,417.00
2024-03-22T10:11:48.281Z,447.00
2024-03-22T10:12:48.230Z,469.00
2024-03-22T10:13:48.356Z,483.00
2024-03-22T10:14:48.237Z,501.00
2024-03-22T10:15:48.235Z,535.00
2024-03-22T10:16:49.078Z,554.00
2024-03-22T10:17:48.309Z,573.00
2024-03-22T10:18:48.394Z,583.00
2024-03-22T10:19:48.261Z,600.00
2024-03-22T10:20:48.298Z,599.00
2024-03-22T10:21:49.264Z,600.00
2024-03-22T10:22:48.255Z,600.00
2024-03-22T10:23:48.235Z,607.00
2024-03-22T10:24:48.244Z,619.00
2024-03-22T10:25:48.295Z,680.00
2024-03-22T10:26:48.410Z,722.00
2024-03-22T10:27:48.383Z,683.00
2024-03-22T10:28:48.327Z,678.00
2024-03-22T10:29:48.399Z,654.00
2024-03-22T10:30:48.453Z,637.00
2024-03-22T10:31:48.573Z,603.00
2024-03-22T10:32:48.442Z,596.00
2024-03-22T10:33:48.475Z,583.00
2024-03-22T10:34:48.484Z,567.00
2024-03-22T10:35:48.453Z,540.00
2024-03-22T10:36:48.483Z,524.00
2024-03-22T10:37:51.946Z,518.00
2024-03-22T10:38:48.464Z,531.00
2024-03-22T10:39:48.524Z,554.00
2024-03-22T10:40:48.463Z,578.00
2024-03-22T10:41:48.532Z,591.00
2024-03-22T10:42:48.499Z,617.00
2024-03-22T10:43:48.466Z,642.00
2024-03-22T10:44:48.538Z,655.00
2024-03-22T10:45:48.469Z,689.00
2024-03-22T10:46:48.492Z,754.00
2024-03-22T10:47:48.565Z,813.00
2024-03-22T10:48:48.523Z,853.00
2024-03-22T10:49:51.054Z,901.00
2024-03-22T10:50:48.480Z,903.00
2024-03-22T10:51:48.509Z,918.00
2024-03-22T10:52:48.460Z,957.00
2024-03-22T10:53:48.481Z,1035.00
2024-03-22T10:54:48.554Z,1163.00
2024-03-22T10:55:48.517Z,1221.00
2024-03-22T10:56:48.500Z,1285.00
2024-03-22T10:57:48.609Z,1319.00
2024-03-22T10:58:48.582Z,1380.00
2024-03-22T10:59:48.502Z,1422.00
2024-03-22T11:00:48.521Z,1424.00
2024-03-22T11:01:49.123Z,1438.00
2024-03-22T11:02:48.494Z,1477.00
2024-03-22T11:03:48.546Z,1547.00
2024-03-22T11:04:48.507Z,1671.00
2024-03-22T11:05:48.520Z,1736.00
2024-03-22T11:06:48.499Z,1779.00
2024-03-22T11:07:48.505Z,1829.00
2024-03-22T11:08:48.500Z,1831.00
2024-03-22T11:09:49.086Z,1846.00
2024-03-22T11:10:48.496Z,1880.00
2024-03-22T11:11:48.535Z,1951.00
2024-03-22T11:12:48.546Z,2065.00
2024-03-22T11:13:48.551Z,2126.00
2024-03-22T11:14:50.336Z,2172.00
2024-03-22T11:15:48.526Z,2201.00
2024-03-22T11:16:48.617Z,2254.00
2024-03-22T11:17:48.520Z,2294.00
2024-03-22T11:18:48.515Z,2295.00
2024-03-22T11:19:48.573Z,2309.00
2024-03-22T11:20:48.534Z,2341.00
2024-03-22T11:21:48.574Z,2411.00
2024-03-22T11:22:48.538Z,2528.00
2024-03-22T11:23:48.555Z,2559.00
2024-03-22T11:24:49.141Z,2561.00
2024-03-22T11:25:48.791Z,2562.00
2024-03-22T11:26:48.658Z,2578.00
2024-03-22T11:27:48.620Z,2619.00
2024-03-22T11:28:48.645Z,2691.00
2024-03-22T11:29:48.643Z,2805.00
2024-03-22T11:30:48.683Z,2837.00
2024-03-22T11:31:48.690Z,2882.00
2024-03-22T11:32:48.713Z,2930.00
2024-03-22T11:33:48.723Z,2948.00
2024-03-22T11:34:48.956Z,2979.00
2024-03-22T11:35:48.766Z,2998.00
2024-03-22T11:36:48.796Z,3018.00
2024-03-22T11:37:49.622Z,3017.00
2024-03-22T11:38:48.870Z,3036.00
2024-03-22T11:39:48.897Z,3060.00
2024-03-22T11:40:48.872Z,3079.00
2024-03-22T11:41:48.881Z,3102.00
2024-03-22T11:42:48.909Z,3117.00
2024-03-22T11:43:49.598Z,3139.00
2024-03-22T11:44:49.052Z,3153.00
2024-03-22T11:45:48.898Z,3169.00
2024-03-22T11:46:48.983Z,3170.00
2024-03-22T11:47:48.962Z,3175.00
2024-03-22T11:48:48.923Z,3171.00
2024-03-22T11:49:49.618Z,3181.00
2024-03-22T11:50:48.941Z,3204.00
2024-03-22T11:51:48.944Z,3243.00
2024-03-22T11:52:48.927Z,3304.00
2024-03-22T11:53:48.999Z,3288.00
2024-03-22T11:54:48.973Z,3247.00
2024-03-22T11:55:48.935Z,3185.00
2024-03-22T11:56:48.961Z,3126.00
2024-03-22T11:57:48.970Z,3066.00
2024-03-22T11:58:48.944Z,3050.00
2024-03-22T11:59:59.290Z,2971.00
2024-03-22T12:01:12.090Z,2912.00
2024-03-22T12:01:50.032Z,2846.00
2024-03-22T12:02:49.126Z,2790.00
2024-03-22T12:03:48.968Z,2730.00
2024-03-22T12:04:48.970Z,2659.00
2024-03-22T12:05:49.001Z,2608.00
2024-03-22T12:06:48.991Z,2555.00
2024-03-22T12:07:48.982Z,2511.00
2024-03-22T12:08:48.981Z,2448.00
2024-03-22T12:09:49.623Z,2411.00
2024-03-22T12:10:48.969Z,2363.00
2024-03-22T12:11:49.099Z,2330.00